Sacramento International Airport
KSMF : now visible

Airfield :











YOU CAN JOIN US ON...

 
LOGIN :

Register | Disclaimer

   EN    FR    IT 

 









Legend :    VFR   Marginal VFR   IFR   Intensive IFR   Very Intensive IFR
Visi :
Ceiling :
>= 8 km
>= 3000ft
5 to 8 km
1000 to 3000 ft
1500m to 5 km
500 to 1000 ft
800 to 1500m
200 to 500 ft
< 800m
< 200 ft
Symbols :   Thunderstorms  Fog  Heavy snow  Heavy precipitations  Wind > 20 kt






- Airport Elevation : 27 ft
- IATA code : SMF


KSMF - Sacramento International

CURRENT METAR :
  • 041421Z 16006KT 3SM BR SCT010 BKN021 08/07 A3003 RMK AO2 T00830067

EXPIRED METARs :
  • 041353Z 13005KT 1SM R17R/P6000FT BR FEW009 BKN025 08/07 A3002 RMK AO2 SLP164 T00780067
  • 041339Z 14008KT 1SM R17R/P6000FT BR FEW009 BKN025 OVC035 08/07 A3001 RMK AO2 T00780067
  • 041332Z 14009KT 1SM R17R/P6000FT BR BKN025 BKN036 OVC043 08/07 A3001 RMK AO2 T00780067
  • 041255Z 13008KT 3/4SM R17R/P6000FT BR FEW015 SCT022 OVC042 08/07 A3000 RMK AO2 TWR VIS 1 T00780067
  • 041238Z 13008KT 3/4SM R17R/P6000FT -RA BR FEW007 BKN020 OVC038 08/06 A3000 RMK AO2 TWR VIS 1 RAB1156 P0001 T00780061
  • 041228Z 13007KT 3/4SM R17R/P6000FT -RA BR FEW025 BKN033 OVC040 08/06 A3000 RMK AO2 TWR VIS 2 1/2 RAB1156 P0000 T00780061
  • 041200Z 13006KT 1SM R17R/P6000FT -RA BR FEW005 BKN043 OVC060 07/06 A3000 RMK AO2 TWR VIS 2 1/2 RAB1156 P0000 T00720061
  • 041153Z 12008KT 3/4SM R17R/P6000FT BR FEW003 BKN055 OVC070 07/06 A3000 RMK AO2 TWR VIS 1 RAB28E47 SLP157 P0001 60010 70145 T00720061 10072 20050 51002

TAF KSMF
Valid from the 04 at 14:00 until the 05 at 12:00 UTC


041410Z 0414/0512 17008KT 3SM BR SCT010 OVC025
TEMPO 0414/0416 1SM BR OVC005
FM041600 17011KT P6SM BKN030
TEMPO 0419/0421 27015KT 2SM SHRA OVC015
FM042100 19007KT P6SM VCSH BKN030
KZOA FIR / North America



MET'MAP, your aeronautical weather chart ! - Copyright ORBIFLY December 2007 - Disclaimer

ORBIFLY MET'MAP TEAM :

Programming & Development : Alexandra Zaïnal
Original concept : Baudouin d'Aumeries
Technical & hardware support : Manuel Goepfert
Assistance : Marc-Olivier Méhu




SOURCES & CREDITS :

   NOAA       Earth
Advisory